createdAt,value
2017-06-03T00:00:14.692Z,17.38
2017-06-03T00:01:29.038Z,17.37
2017-06-03T00:02:30.946Z,17.21
2017-06-03T00:03:32.854Z,17.22
2017-06-03T00:04:34.763Z,17.18
2017-06-03T00:05:36.608Z,17.25
2017-06-03T00:06:38.654Z,17.21
2017-06-03T00:07:40.565Z,17.15
2017-06-03T00:08:42.477Z,17.16
2017-06-03T00:09:44.347Z,17.08
2017-06-03T00:10:58.596Z,17.16
2017-06-03T00:12:00.511Z,17.15
2017-06-03T00:13:02.406Z,17.07
2017-06-03T00:14:04.316Z,17.01
2017-06-03T00:15:06.161Z,17.03
2017-06-03T00:16:08.008Z,17.01
2017-06-03T00:17:09.916Z,16.94
2017-06-03T00:18:11.823Z,16.94
2017-06-03T00:19:13.732Z,16.94
2017-06-03T00:20:27.879Z,16.97
2017-06-03T00:21:29.787Z,16.96
2017-06-03T00:22:31.705Z,16.93
2017-06-03T00:23:33.604Z,16.89
2017-06-03T00:24:35.448Z,16.86
2017-06-03T00:25:37.297Z,16.79
2017-06-03T00:26:39.205Z,16.89
2017-06-03T00:27:41.113Z,16.85
2017-06-03T00:28:43.022Z,16.83
2017-06-03T00:29:57.217Z,16.76
2017-06-03T00:30:59.125Z,16.82
2017-06-03T00:32:01.031Z,16.86
2017-06-03T00:33:03.340Z,16.79
2017-06-03T00:34:05.187Z,16.75
2017-06-03T00:35:07.033Z,16.66
2017-06-03T00:36:08.945Z,16.70
2017-06-03T00:37:10.844Z,16.57
2017-06-03T00:38:12.953Z,16.61
2017-06-03T00:39:27.150Z,16.63
2017-06-03T00:40:29.059Z,16.63
2017-06-03T00:41:30.963Z,16.60
2017-06-03T00:42:32.871Z,16.53
2017-06-03T00:43:34.965Z,16.50
2017-06-03T00:44:36.813Z,16.41
2017-06-03T00:45:38.719Z,16.45
2017-06-03T00:46:40.626Z,16.50
2017-06-03T00:47:42.533Z,16.45
2017-06-03T00:48:56.709Z,16.45
2017-06-03T00:49:58.581Z,16.39
2017-06-03T00:51:00.491Z,16.41
2017-06-03T00:52:02.401Z,16.41
2017-06-03T00:53:04.282Z,16.31
2017-06-03T00:54:06.228Z,16.38
2017-06-03T00:55:08.077Z,16.35
2017-06-03T00:56:09.987Z,16.38
2017-06-03T00:57:11.896Z,16.39
2017-06-03T00:58:26.106Z,16.25
2017-06-03T00:59:28.013Z,16.25
2017-06-03T01:00:29.921Z,16.14
2017-06-03T01:01:31.829Z,16.23
2017-06-03T01:02:33.673Z,16.20
2017-06-03T01:03:35.521Z,16.21
2017-06-03T01:04:37.728Z,16.12
2017-06-03T01:05:39.637Z,16.08
2017-06-03T01:06:41.544Z,16.17
2017-06-03T01:07:55.692Z,16.28
2017-06-03T01:08:57.599Z,16.23
2017-06-03T01:09:59.508Z,16.24
2017-06-03T01:11:12.529Z,16.28
2017-06-03T01:12:14.437Z,16.17
2017-06-03T01:13:16.343Z,16.21
2017-06-03T01:14:18.252Z,16.14
2017-06-03T01:15:20.199Z,16.14
2017-06-03T01:16:22.043Z,16.11
2017-06-03T01:17:23.951Z,16.20
2017-06-03T01:18:25.858Z,16.14
2017-06-03T01:19:27.766Z,16.01
2017-06-03T01:20:42.115Z,16.08
2017-06-03T01:21:44.023Z,16.05
2017-06-03T01:22:45.929Z,16.12
2017-06-03T01:23:47.839Z,16.12
2017-06-03T01:24:49.684Z,16.14
2017-06-03T01:25:51.532Z,15.97
2017-06-03T01:26:53.439Z,16.08
2017-06-03T01:27:55.346Z,16.07
2017-06-03T01:28:57.253Z,16.02
2017-06-03T01:30:11.753Z,16.12
2017-06-03T01:31:13.660Z,16.11
2017-06-03T01:32:15.570Z,16.04
2017-06-03T01:33:17.479Z,16.00
2017-06-03T01:34:19.327Z,16.00
2017-06-03T01:35:21.173Z,16.07
2017-06-03T01:36:23.082Z,16.08
2017-06-03T01:37:24.989Z,16.08
2017-06-03T01:38:26.898Z,16.02
2017-06-03T01:39:41.098Z,15.97
2017-06-03T01:40:43.009Z,15.94
2017-06-03T01:41:45.219Z,15.93
2017-06-03T01:42:47.129Z,15.84
2017-06-03T01:43:48.976Z,15.86
2017-06-03T01:44:50.822Z,15.86
2017-06-03T01:45:52.730Z,15.92
2017-06-03T01:46:54.639Z,15.96
2017-06-03T01:47:56.549Z,15.80
2017-06-03T01:49:10.699Z,15.74
2017-06-03T01:50:12.606Z,15.65
2017-06-03T01:51:14.515Z,15.60
2017-06-03T01:52:16.826Z,15.53
2017-06-03T01:53:18.671Z,15.54
2017-06-03T01:54:20.514Z,15.54
2017-06-03T01:55:22.422Z,15.54
2017-06-03T01:56:24.331Z,15.54
2017-06-03T01:57:26.547Z,15.51
2017-06-03T01:58:40.692Z,15.56
2017-06-03T01:59:42.599Z,15.50
2017-06-03T02:00:44.507Z,15.51
2017-06-03T02:01:46.415Z,15.46
2017-06-03T02:02:48.263Z,15.49
2017-06-03T02:03:50.106Z,15.51
2017-06-03T02:04:52.016Z,15.50
2017-06-03T02:05:53.925Z,15.53
2017-06-03T02:06:55.834Z,15.49
2017-06-03T02:08:10.287Z,15.43
2017-06-03T02:09:12.197Z,15.49
2017-06-03T02:10:14.106Z,15.53
2017-06-03T02:11:16.011Z,15.34
2017-06-03T02:12:17.857Z,15.46
2017-06-03T02:13:19.703Z,15.41
2017-06-03T02:14:21.611Z,15.34
2017-06-03T02:15:23.518Z,15.47
2017-06-03T02:16:25.428Z,15.34
2017-06-03T02:17:39.928Z,15.39
2017-06-03T02:18:41.841Z,15.38
2017-06-03T02:19:43.751Z,15.28
2017-06-03T02:20:45.662Z,15.39
2017-06-03T02:21:47.512Z,15.38
2017-06-03T02:22:49.357Z,15.31
2017-06-03T02:23:51.265Z,15.34
2017-06-03T02:24:53.177Z,15.39
2017-06-03T02:25:55.088Z,15.39
2017-06-03T02:27:09.287Z,15.41
2017-06-03T02:28:11.215Z,15.38
2017-06-03T02:29:13.100Z,15.38
2017-06-03T02:30:15.009Z,15.27
2017-06-03T02:31:16.856Z,15.27
2017-06-03T02:32:18.706Z,15.32
2017-06-03T02:33:20.617Z,15.27
2017-06-03T02:34:22.525Z,15.27
2017-06-03T02:35:24.438Z,15.35
2017-06-03T02:36:38.639Z,15.35
2017-06-03T02:37:40.549Z,15.35
2017-06-03T02:38:42.462Z,15.34
2017-06-03T02:39:44.721Z,15.36
2017-06-03T02:40:46.569Z,15.36
2017-06-03T02:41:48.420Z,15.31
2017-06-03T02:42:50.330Z,15.32
2017-06-03T02:43:52.241Z,15.34
2017-06-03T02:44:54.155Z,15.27
2017-06-03T02:46:08.359Z,15.31
2017-06-03T02:47:10.271Z,15.27
2017-06-03T02:48:12.182Z,15.32
2017-06-03T02:49:14.092Z,15.34
2017-06-03T02:50:16.143Z,15.28
2017-06-03T02:51:17.997Z,15.41
2017-06-03T02:52:19.907Z,15.28
2017-06-03T02:53:21.823Z,15.32
2017-06-03T02:54:23.738Z,15.35
2017-06-03T02:55:37.890Z,15.41
2017-06-03T02:56:39.801Z,15.50
2017-06-03T02:57:41.711Z,15.46
2017-06-03T02:58:43.623Z,15.51
2017-06-03T02:59:45.472Z,15.67
2017-06-03T03:00:47.422Z,15.54
2017-06-03T03:01:49.335Z,15.69
2017-06-03T03:02:51.245Z,15.67
2017-06-03T03:03:53.157Z,15.76
2017-06-03T03:05:07.763Z,15.69
2017-06-03T03:06:09.679Z,15.71
2017-06-03T03:07:11.592Z,15.83
2017-06-03T03:08:13.504Z,15.92
2017-06-03T03:09:15.357Z,15.96
2017-06-03T03:10:17.220Z,16.02
2017-06-03T03:11:19.269Z,16.12
2017-06-03T03:12:21.184Z,16.21
2017-06-03T03:13:23.099Z,16.39
2017-06-03T03:14:37.252Z,16.45
2017-06-03T03:15:39.165Z,16.58
2017-06-03T03:16:41.078Z,16.67
2017-06-03T03:17:42.994Z,16.81
2017-06-03T03:18:44.847Z,16.94
2017-06-03T03:19:46.700Z,17.00
2017-06-03T03:20:48.574Z,17.07
2017-06-03T03:21:50.940Z,17.07
2017-06-03T03:22:52.854Z,17.19
2017-06-03T03:24:07.009Z,17.33
2017-06-03T03:25:08.923Z,17.44
2017-06-03T03:26:10.843Z,17.64
2017-06-03T03:27:12.756Z,17.71
2017-06-03T03:28:14.608Z,17.92
2017-06-03T03:29:16.464Z,18.23
2017-06-03T03:30:18.379Z,18.44
2017-06-03T03:31:20.318Z,18.73
2017-06-03T03:32:22.505Z,18.88
2017-06-03T03:33:36.667Z,19.06
2017-06-03T03:34:38.575Z,19.28
2017-06-03T03:35:40.494Z,19.51
2017-06-03T03:36:42.408Z,19.58
2017-06-03T03:37:44.263Z,19.80
2017-06-03T03:38:46.119Z,19.94
2017-06-03T03:39:48.035Z,20.13
2017-06-03T03:40:49.951Z,20.28
2017-06-03T03:41:51.866Z,20.39
2017-06-03T03:43:06.173Z,20.58
2017-06-03T03:44:08.091Z,20.58
2017-06-03T03:45:10.008Z,20.69
2017-06-03T03:46:11.927Z,20.89
2017-06-03T03:47:13.781Z,20.84
2017-06-03T03:48:15.936Z,20.91
2017-06-03T03:49:17.853Z,20.91
2017-06-03T03:50:19.771Z,20.88
2017-06-03T03:51:21.687Z,20.80
2017-06-03T03:52:35.848Z,20.55
2017-06-03T03:53:37.764Z,20.48
2017-06-03T03:54:39.683Z,20.41
2017-06-03T03:55:41.599Z,20.33
2017-06-03T03:56:43.457Z,20.29
2017-06-03T03:57:45.313Z,20.33
2017-06-03T03:58:47.532Z,20.38
2017-06-03T03:59:49.448Z,20.29
2017-06-03T04:00:51.365Z,20.21
2017-06-03T04:02:05.523Z,19.95
2017-06-03T04:03:07.438Z,19.77
2017-06-03T04:04:09.448Z,19.61
2017-06-03T04:05:11.361Z,19.41
2017-06-03T04:06:13.217Z,19.23
2017-06-03T04:07:15.069Z,19.21
2017-06-03T04:08:16.982Z,19.00
2017-06-03T04:09:19.202Z,18.88
2017-06-03T04:10:21.118Z,18.81
2017-06-03T04:11:35.275Z,18.72
2017-06-03T04:12:37.190Z,18.70
2017-06-03T04:13:39.106Z,18.66
2017-06-03T04:14:41.021Z,18.65
2017-06-03T04:15:42.878Z,18.54
2017-06-03T04:16:44.732Z,18.51
2017-06-03T04:17:46.649Z,18.47
2017-06-03T04:18:48.564Z,18.45
2017-06-03T04:19:50.732Z,18.35
2017-06-03T04:21:04.939Z,18.18
2017-06-03T04:22:06.855Z,18.08
2017-06-03T04:23:08.771Z,17.87
2017-06-03T04:24:10.685Z,17.77
2017-06-03T04:25:12.640Z,17.96
2017-06-03T04:26:14.494Z,18.21
2017-06-03T04:27:16.371Z,18.69
2017-06-03T04:28:18.487Z,19.04
2017-06-03T04:29:20.407Z,19.29
2017-06-03T04:30:34.968Z,19.50
2017-06-03T04:31:36.883Z,19.54
2017-06-03T04:32:38.799Z,19.56
2017-06-03T04:33:40.715Z,19.55
2017-06-03T04:34:42.569Z,19.41
2017-06-03T04:35:44.429Z,19.37
2017-06-03T04:36:46.342Z,19.28
2017-06-03T04:37:48.258Z,19.19
2017-06-03T04:38:50.177Z,19.07
2017-06-03T04:40:04.683Z,19.04
2017-06-03T04:41:06.601Z,19.10
2017-06-03T04:42:08.518Z,19.06
2017-06-03T04:43:10.437Z,19.31
2017-06-03T04:44:12.292Z,19.95
2017-06-03T04:45:14.148Z,20.42
2017-06-03T04:46:16.168Z,20.62
2017-06-03T04:47:18.086Z,20.91
2017-06-03T04:48:20.004Z,21.01
2017-06-03T04:49:34.164Z,21.40
2017-06-03T04:50:36.083Z,21.80
2017-06-03T04:51:38.202Z,22.15
2017-06-03T04:52:40.124Z,22.49
2017-06-03T04:53:41.977Z,22.70
2017-06-03T04:54:43.829Z,22.98
2017-06-03T04:55:45.750Z,22.85
2017-06-03T04:56:47.667Z,22.80
2017-06-03T04:57:49.584Z,22.47
2017-06-03T04:59:03.745Z,22.20
2017-06-03T05:00:05.665Z,22.27
2017-06-03T05:01:07.583Z,22.31
2017-06-03T05:02:09.502Z,22.67
2017-06-03T05:03:11.361Z,22.97
2017-06-03T05:04:13.219Z,23.25
2017-06-03T05:05:15.136Z,23.47
2017-06-03T05:06:17.059Z,23.60
2017-06-03T05:07:18.981Z,23.88
2017-06-03T05:08:33.189Z,23.98
2017-06-03T05:09:35.108Z,24.05
2017-06-03T05:10:37.028Z,24.16
2017-06-03T05:11:38.949Z,24.20
2017-06-03T05:12:40.809Z,24.34
2017-06-03T05:13:42.667Z,24.35
2017-06-03T05:14:44.586Z,24.39
2017-06-03T05:15:46.506Z,24.42
2017-06-03T05:16:48.429Z,24.43
2017-06-03T05:18:02.937Z,24.37
2017-06-03T05:19:04.857Z,24.42
2017-06-03T05:20:06.777Z,24.61
2017-06-03T05:21:08.703Z,24.67
2017-06-03T05:22:10.557Z,24.85
2017-06-03T05:23:12.513Z,24.98
2017-06-03T05:24:14.434Z,25.05
2017-06-03T05:25:16.354Z,25.18
2017-06-03T05:26:18.275Z,25.21
2017-06-03T05:27:32.486Z,25.08
2017-06-03T05:28:34.406Z,24.96
2017-06-03T05:29:36.327Z,24.85
2017-06-03T05:30:38.247Z,24.87
2017-06-03T05:31:40.107Z,24.85
2017-06-03T05:32:41.964Z,24.81
2017-06-03T05:33:43.884Z,24.71
2017-06-03T05:34:45.806Z,24.50
2017-06-03T05:35:47.727Z,24.27
2017-06-03T05:37:01.935Z,23.98
2017-06-03T05:38:03.853Z,23.76
2017-06-03T05:39:08.825Z,23.65
2017-06-03T05:40:10.742Z,23.54
2017-06-03T05:41:12.603Z,23.54
2017-06-03T05:42:14.457Z,23.31
2017-06-03T05:43:16.379Z,23.13
2017-06-03T05:44:18.299Z,22.91
2017-06-03T05:45:20.222Z,22.67
2017-06-03T05:46:34.385Z,22.12
2017-06-03T05:47:36.305Z,21.94
2017-06-03T05:48:38.224Z,21.91
2017-06-03T05:49:40.344Z,22.05
2017-06-03T05:50:42.205Z,22.03
2017-06-03T05:51:44.064Z,22.14
2017-06-03T05:52:45.983Z,22.03
2017-06-03T05:53:47.929Z,22.00
2017-06-03T05:54:49.820Z,22.03
2017-06-03T05:56:04.031Z,21.82
2017-06-03T05:57:05.951Z,21.79
2017-06-03T05:58:07.871Z,21.90
2017-06-03T05:59:09.794Z,22.15
2017-06-03T06:00:11.650Z,22.25
2017-06-03T06:01:13.510Z,22.31
2017-06-03T06:02:15.429Z,22.36
2017-06-03T06:03:17.351Z,22.31
2017-06-03T06:04:19.273Z,22.15
2017-06-03T06:05:33.782Z,22.03
2017-06-03T06:06:35.701Z,22.06
2017-06-03T06:07:37.621Z,22.27
2017-06-03T06:08:39.542Z,22.30
2017-06-03T06:09:41.401Z,22.33
2017-06-03T06:10:43.260Z,22.35
2017-06-03T06:11:45.179Z,22.25
2017-06-03T06:12:47.099Z,22.22
2017-06-03T06:13:49.023Z,22.24
2017-06-03T06:15:03.431Z,22.49
2017-06-03T06:16:05.351Z,22.61
2017-06-03T06:17:07.270Z,22.68
2017-06-03T06:18:09.191Z,22.65
2017-06-03T06:19:11.050Z,22.57
2017-06-03T06:20:12.908Z,22.60
2017-06-03T06:21:14.931Z,22.65
2017-06-03T06:22:16.851Z,22.70
2017-06-03T06:23:18.773Z,22.75
2017-06-03T06:24:32.936Z,22.88
2017-06-03T06:25:34.855Z,22.90
2017-06-03T06:26:36.974Z,23.02
2017-06-03T06:27:38.895Z,23.07
2017-06-03T06:28:40.753Z,23.00
2017-06-03T06:29:42.611Z,23.01
2017-06-03T06:30:44.532Z,23.12
2017-06-03T06:31:46.454Z,23.16
2017-06-03T06:32:48.373Z,23.31
2017-06-03T06:34:02.538Z,23.36
2017-06-03T06:35:04.463Z,23.33
2017-06-03T06:36:06.379Z,23.27
2017-06-03T06:37:08.400Z,23.16
2017-06-03T06:38:10.256Z,23.27
2017-06-03T06:39:12.115Z,23.31
2017-06-03T06:40:14.037Z,23.33
2017-06-03T06:41:15.960Z,23.57
2017-06-03T06:42:18.080Z,23.73
2017-06-03T06:43:32.289Z,23.87
2017-06-03T06:44:34.210Z,24.02
2017-06-03T06:45:36.131Z,24.18
2017-06-03T06:46:38.053Z,24.18
2017-06-03T06:47:39.912Z,24.34
2017-06-03T06:48:41.770Z,24.73
2017-06-03T06:49:43.689Z,24.84
2017-06-03T06:50:45.608Z,25.08
2017-06-03T06:51:47.532Z,25.27
2017-06-03T06:53:01.808Z,25.51
2017-06-03T06:54:03.726Z,25.64
2017-06-03T06:55:05.651Z,25.79
2017-06-03T06:56:07.564Z,25.85
2017-06-03T06:57:09.422Z,25.90
2017-06-03T06:58:11.281Z,25.98
2017-06-03T06:59:13.200Z,25.92
2017-06-03T07:00:15.121Z,25.97
2017-06-03T07:01:17.043Z,26.05
2017-06-03T07:02:31.407Z,26.01
2017-06-03T07:03:33.324Z,25.92
2017-06-03T07:04:35.246Z,25.94
2017-06-03T07:05:37.168Z,26.01
2017-06-03T07:06:39.027Z,26.02
2017-06-03T07:07:40.887Z,26.05
2017-06-03T07:08:42.908Z,26.12
2017-06-03T07:09:44.830Z,26.23
2017-06-03T07:10:46.752Z,26.29
2017-06-03T07:12:00.916Z,26.35
2017-06-03T07:13:02.837Z,26.45
2017-06-03T07:14:04.763Z,26.58
2017-06-03T07:15:06.677Z,26.76
2017-06-03T07:16:08.538Z,26.82
2017-06-03T07:17:10.478Z,26.89
2017-06-03T07:18:12.450Z,27.00
2017-06-03T07:19:14.954Z,27.02
2017-06-03T07:20:17.324Z,27.07
2017-06-03T07:21:31.626Z,27.18
2017-06-03T07:22:33.599Z,27.32
2017-06-03T07:23:35.526Z,27.24
2017-06-03T07:24:37.512Z,27.40
2017-06-03T07:25:39.792Z,27.47
2017-06-03T07:26:41.684Z,27.62
2017-06-03T07:27:43.613Z,27.72
2017-06-03T07:28:45.580Z,27.81
2017-06-03T07:29:47.501Z,27.82
2017-06-03T07:31:02.110Z,27.67
2017-06-03T07:32:04.036Z,27.77
2017-06-03T07:33:06.345Z,27.75
2017-06-03T07:34:08.311Z,27.77
2017-06-03T07:35:10.308Z,27.79
2017-06-03T07:36:12.229Z,27.85
2017-06-03T07:37:14.150Z,27.85
2017-06-03T07:38:16.070Z,27.93
2017-06-03T07:39:17.990Z,28.02
2017-06-03T07:40:32.203Z,27.94
2017-06-03T07:41:34.123Z,28.02
2017-06-03T07:42:36.048Z,28.09
2017-06-03T07:43:37.966Z,28.15
2017-06-03T07:44:39.828Z,28.25
2017-06-03T07:45:42.074Z,28.19
2017-06-03T07:46:43.992Z,28.22
2017-06-03T07:47:45.915Z,28.24
2017-06-03T07:48:47.860Z,28.30
2017-06-03T07:50:02.019Z,28.31
2017-06-03T07:51:03.971Z,28.36
2017-06-03T07:52:05.892Z,28.43
2017-06-03T07:53:07.810Z,28.39
2017-06-03T07:54:09.673Z,28.39
2017-06-03T07:55:11.533Z,28.31
2017-06-03T07:56:13.519Z,28.37
2017-06-03T07:57:15.432Z,28.29
2017-06-03T07:58:17.371Z,28.18
2017-06-03T07:59:31.564Z,28.24
2017-06-03T08:00:33.844Z,28.17
2017-06-03T08:01:35.881Z,28.29
2017-06-03T08:02:37.923Z,28.34
2017-06-03T08:03:39.913Z,28.29
2017-06-03T08:04:41.853Z,28.39
2017-06-03T08:05:44.086Z,28.39
2017-06-03T08:06:48.996Z,28.43
2017-06-03T08:07:50.859Z,28.52
2017-06-03T08:09:05.659Z,28.55
2017-06-03T08:10:07.795Z,28.64
2017-06-03T08:11:09.717Z,28.83
2017-06-03T08:12:11.859Z,28.73
2017-06-03T08:13:13.692Z,28.67
2017-06-03T08:14:15.550Z,28.67
2017-06-03T08:15:17.472Z,28.62
2017-06-03T08:16:19.399Z,28.56
2017-06-03T08:17:21.318Z,28.46
2017-06-03T08:18:35.657Z,28.46
2017-06-03T08:19:37.956Z,28.40
2017-06-03T08:20:39.941Z,28.51
2017-06-03T08:21:42.294Z,28.40
2017-06-03T08:22:44.481Z,28.41
2017-06-03T08:23:46.397Z,28.31
2017-06-03T08:24:48.737Z,28.34
2017-06-03T08:25:50.614Z,28.37
2017-06-03T08:26:52.539Z,28.37
2017-06-03T08:28:06.901Z,28.34
2017-06-03T08:29:08.819Z,28.33
2017-06-03T08:30:10.752Z,28.31
2017-06-03T08:31:12.677Z,28.31
2017-06-03T08:32:14.534Z,28.14
2017-06-03T08:33:16.396Z,28.04
2017-06-03T08:34:18.317Z,27.72
2017-06-03T08:35:20.236Z,27.54
2017-06-03T08:36:22.157Z,27.50
2017-06-03T08:37:36.630Z,27.32
2017-06-03T08:38:38.547Z,27.28
2017-06-03T08:39:40.468Z,27.24
2017-06-03T08:40:42.384Z,27.29
2017-06-03T08:41:44.245Z,27.36
2017-06-03T08:42:46.106Z,27.43
2017-06-03T08:43:48.025Z,27.47
2017-06-03T08:44:49.946Z,27.46
2017-06-03T08:45:51.869Z,27.51
2017-06-03T08:47:06.036Z,27.59
2017-06-03T08:48:07.959Z,27.63
2017-06-03T08:49:09.863Z,27.67
2017-06-03T08:50:11.784Z,27.70
2017-06-03T08:51:13.641Z,27.66
2017-06-03T08:52:15.516Z,27.67
2017-06-03T08:53:17.430Z,27.60
2017-06-03T08:54:19.387Z,27.57
2017-06-03T08:55:21.310Z,27.72
2017-06-03T08:56:35.866Z,27.67
2017-06-03T08:57:38.168Z,27.75
2017-06-03T08:58:40.172Z,27.77
2017-06-03T08:59:42.277Z,27.84
2017-06-03T09:00:44.150Z,27.90
2017-06-03T09:01:46.012Z,27.96
2017-06-03T09:02:47.934Z,27.92
2017-06-03T09:03:49.853Z,28.00
2017-06-03T09:04:51.782Z,27.94
2017-06-03T09:06:05.990Z,27.85
2017-06-03T09:07:07.907Z,27.77
2017-06-03T09:08:09.828Z,27.57
2017-06-03T09:09:11.756Z,27.50
2017-06-03T09:09:57.081Z,27.57
2017-06-03T09:10:41.799Z,27.63
2017-06-03T09:11:44.933Z,27.70
2017-06-03T09:12:29.613Z,27.70
2017-06-03T09:13:33.122Z,27.66
2017-06-03T09:14:39.067Z,27.60
2017-06-03T09:15:23.746Z,27.59
2017-06-03T09:16:26.902Z,27.60
2017-06-03T09:17:11.551Z,27.59
2017-06-03T09:18:17.482Z,27.62
2017-06-03T09:19:33.123Z,27.65
2017-06-03T09:20:17.806Z,27.69
2017-06-03T09:21:46.777Z,27.57
2017-06-03T09:22:49.953Z,27.54
2017-06-03T09:23:55.883Z,27.63
2017-06-03T09:24:40.565Z,27.59
2017-06-03T09:26:09.136Z,27.62
2017-06-03T09:27:15.079Z,27.57
2017-06-03T09:28:30.708Z,27.49
2017-06-03T09:29:46.289Z,27.49
2017-06-03T09:30:30.970Z,27.55
2017-06-03T09:31:15.647Z,27.55
2017-06-03T09:32:00.375Z,27.55
2017-06-03T09:32:45.074Z,27.70
2017-06-03T09:33:29.783Z,27.69
2017-06-03T09:34:58.356Z,27.66
2017-06-03T09:36:01.862Z,27.70
2017-06-03T09:36:46.614Z,27.59
2017-06-03T09:37:55.873Z,27.55
2017-06-03T09:39:11.504Z,27.57
2017-06-03T09:40:27.146Z,27.47
2017-06-03T09:41:33.011Z,27.40
2017-06-03T09:42:17.695Z,27.44
2017-06-03T09:43:02.477Z,27.32
2017-06-03T09:44:05.574Z,27.27
2017-06-03T09:45:09.080Z,27.27
2017-06-03T09:46:24.714Z,27.36
2017-06-03T09:47:40.286Z,27.54
2017-06-03T09:48:55.869Z,27.60
2017-06-03T09:50:11.498Z,27.79
2017-06-03T09:51:27.130Z,27.93
2017-06-03T09:52:33.063Z,28.02
2017-06-03T09:54:00.991Z,28.11
2017-06-03T09:55:29.566Z,28.17
2017-06-03T09:56:33.069Z,28.30
2017-06-03T09:57:48.705Z,28.24
2017-06-03T09:59:04.282Z,28.19
2017-06-03T10:00:19.855Z,28.29
2017-06-03T10:01:35.491Z,28.46
2017-06-03T10:02:51.127Z,28.52
2017-06-03T10:03:35.812Z,28.56
2017-06-03T10:04:20.491Z,28.61
2017-06-03T10:05:23.592Z,28.68
2017-06-03T10:06:27.099Z,28.73
2017-06-03T10:07:42.737Z,28.80
2017-06-03T10:08:48.610Z,28.86
2017-06-03T10:09:33.295Z,28.80
2017-06-03T10:10:38.853Z,28.88
2017-06-03T10:11:41.379Z,28.98
2017-06-03T10:12:26.067Z,28.98
2017-06-03T10:13:29.572Z,29.18
2017-06-03T10:14:33.075Z,29.15
2017-06-03T10:15:48.710Z,29.26
2017-06-03T10:17:04.289Z,29.12
2017-06-03T10:18:18.887Z,29.30
2017-06-03T10:19:21.415Z,29.27
2017-06-03T10:20:06.093Z,29.30
2017-06-03T10:21:09.093Z,29.15
2017-06-03T10:22:24.727Z,29.21
2017-06-03T10:23:40.361Z,29.18
2017-06-03T10:24:43.809Z,29.23
2017-06-03T10:25:28.489Z,29.26
2017-06-03T10:26:57.064Z,29.26
2017-06-03T10:28:12.700Z,29.26
2017-06-03T10:29:28.335Z,29.27
2017-06-03T10:30:34.206Z,29.41
2017-06-03T10:31:18.889Z,29.31
2017-06-03T10:32:22.399Z,29.43
2017-06-03T10:33:25.904Z,29.31
2017-06-03T10:34:41.546Z,29.30
2017-06-03T10:35:47.420Z,29.30
2017-06-03T10:36:51.070Z,29.30
2017-06-03T10:38:06.702Z,29.30
2017-06-03T10:39:22.342Z,29.45
2017-06-03T10:40:28.273Z,29.58
2017-06-03T10:42:28.189Z,29.65
2017-06-03T10:43:13.242Z,29.74
2017-06-03T10:43:57.966Z,29.78
2017-06-03T10:44:42.697Z,29.76
2017-06-03T10:45:57.790Z,29.76
2017-06-03T10:46:42.799Z,29.80
2017-06-03T10:47:27.536Z,29.87
2017-06-03T10:48:31.955Z,29.90
2017-06-03T10:49:37.886Z,30.11
2017-06-03T10:50:52.947Z,30.11
2017-06-03T10:51:37.988Z,30.15
2017-06-03T10:52:41.532Z,30.22
2017-06-03T10:53:46.573Z,30.27
2017-06-03T10:54:31.296Z,30.32
2017-06-03T10:55:35.282Z,30.45
2017-06-03T10:56:20.319Z,30.54
2017-06-03T10:57:29.831Z,30.73
2017-06-03T10:58:33.085Z,30.83
2017-06-03T10:59:39.415Z,31.02
2017-06-03T11:00:24.055Z,31.12
2017-06-03T11:01:27.202Z,31.12
2017-06-03T11:02:30.773Z,31.26
2017-06-03T11:03:33.775Z,31.43
2017-06-03T11:04:36.808Z,31.50
2017-06-03T11:05:40.615Z,31.51
2017-06-03T11:06:25.660Z,31.69
2017-06-03T11:07:10.345Z,31.73
2017-06-03T11:08:16.365Z,31.88
2017-06-03T11:09:19.925Z,31.88
2017-06-03T11:10:04.606Z,31.85
2017-06-03T11:10:49.343Z,31.95
2017-06-03T11:11:34.074Z,31.99
2017-06-03T11:12:18.760Z,32.00
2017-06-03T11:13:22.324Z,32.06
2017-06-03T11:14:38.386Z,32.07
2017-06-03T11:15:42.522Z,32.14
2017-06-03T11:16:27.242Z,32.19
2017-06-03T11:17:30.837Z,32.15
2017-06-03T11:18:36.812Z,32.19
2017-06-03T11:19:40.433Z,32.19
2017-06-03T11:20:43.167Z,32.19
2017-06-03T11:21:46.615Z,32.19
2017-06-03T11:22:31.611Z,32.21
2017-06-03T11:23:34.176Z,32.19
2017-06-03T11:24:19.234Z,32.21
2017-06-03T11:25:22.358Z,32.14
2017-06-03T11:26:07.175Z,32.11
2017-06-03T11:27:10.312Z,32.08
2017-06-03T11:28:25.425Z,32.10
2017-06-03T11:29:28.395Z,32.11
2017-06-03T11:30:32.295Z,32.15
2017-06-03T11:31:17.298Z,32.18
2017-06-03T11:32:02.366Z,32.06
2017-06-03T11:33:05.725Z,32.13
2017-06-03T11:34:34.344Z,32.11
2017-06-03T11:35:40.324Z,32.13
2017-06-03T11:36:44.238Z,31.99
2017-06-03T11:38:12.745Z,31.91
2017-06-03T11:39:18.682Z,31.86
2017-06-03T11:40:03.363Z,31.84
2017-06-03T11:41:31.944Z,31.80
2017-06-03T11:42:37.877Z,31.72
2017-06-03T11:43:53.539Z,31.70
2017-06-03T11:45:09.088Z,31.62
2017-06-03T11:46:24.665Z,31.58
2017-06-03T11:47:09.347Z,31.53
2017-06-03T11:48:13.862Z,31.38
2017-06-03T11:49:28.519Z,31.25
2017-06-03T11:50:34.457Z,31.13
2017-06-03T11:51:37.903Z,31.13
2017-06-03T11:52:22.586Z,31.07
2017-06-03T11:53:27.199Z,31.09
2017-06-03T11:54:30.708Z,31.06
2017-06-03T11:55:45.362Z,31.09
2017-06-03T11:56:47.830Z,31.04
2017-06-03T11:57:32.511Z,31.04
2017-06-03T11:58:36.453Z,30.97
2017-06-03T11:59:21.138Z,30.84
2017-06-03T12:00:27.069Z,30.82
2017-06-03T12:01:42.706Z,30.79
2017-06-03T12:02:27.387Z,30.73
2017-06-03T12:03:55.964Z,30.67
2017-06-03T12:04:40.646Z,30.72
2017-06-03T12:05:25.692Z,30.62
2017-06-03T12:06:10.371Z,30.57
2017-06-03T12:07:13.883Z,30.62
2017-06-03T12:07:58.567Z,30.55
2017-06-03T12:09:27.173Z,30.54
2017-06-03T12:10:30.682Z,30.57
2017-06-03T12:11:45.336Z,30.42
2017-06-03T12:13:12.869Z,30.17
2017-06-03T12:13:57.552Z,30.07
2017-06-03T12:15:01.878Z,30.07
2017-06-03T12:16:05.488Z,29.97
2017-06-03T12:17:21.127Z,29.83
2017-06-03T12:18:36.704Z,29.86
2017-06-03T12:19:52.336Z,29.90
2017-06-03T12:20:58.271Z,30.04
2017-06-03T12:21:42.956Z,29.89
2017-06-03T12:23:11.528Z,30.07
2017-06-03T12:24:27.165Z,30.05
2017-06-03T12:25:30.673Z,30.05
2017-06-03T12:26:46.250Z,30.23
2017-06-03T12:27:31.129Z,30.23
2017-06-03T12:28:40.297Z,30.29
2017-06-03T12:29:55.933Z,30.29
2017-06-03T12:31:01.865Z,30.31
2017-06-03T12:31:46.548Z,30.20
2017-06-03T12:33:15.121Z,30.11
2017-06-03T12:34:30.757Z,30.05
2017-06-03T12:35:34.264Z,30.00
2017-06-03T12:36:49.843Z,30.07
2017-06-03T12:37:55.813Z,30.05
2017-06-03T12:38:40.496Z,30.02
2017-06-03T12:39:44.006Z,30.07
2017-06-03T12:40:47.517Z,30.08
2017-06-03T12:41:32.201Z,30.16
2017-06-03T12:43:00.778Z,30.07
2017-06-03T12:44:03.303Z,30.02
2017-06-03T12:45:06.818Z,29.92
2017-06-03T12:46:10.266Z,29.86
2017-06-03T12:47:25.838Z,29.85
2017-06-03T12:48:41.480Z,29.83
2017-06-03T12:49:44.212Z,29.86
2017-06-03T12:50:28.895Z,29.89
2017-06-03T12:51:31.999Z,29.97
2017-06-03T12:52:35.512Z,30.15
2017-06-03T12:53:51.151Z,30.07
2017-06-03T12:54:57.019Z,30.17
2017-06-03T12:55:41.702Z,30.11
2017-06-03T12:57:10.276Z,30.15
2017-06-03T12:58:25.913Z,30.20
2017-06-03T12:59:41.553Z,30.23
2017-06-03T13:00:47.426Z,30.20
2017-06-03T13:02:03.002Z,30.13
2017-06-03T13:02:47.682Z,30.05
2017-06-03T13:03:51.189Z,30.07
2017-06-03T13:04:54.695Z,30.02
2017-06-03T13:05:58.303Z,30.01
2017-06-03T13:07:13.881Z,30.07
2017-06-03T13:08:29.457Z,30.17
2017-06-03T13:09:45.098Z,30.22
2017-06-03T13:10:29.783Z,30.23
2017-06-03T13:11:17.668Z,30.29
2017-06-03T13:12:21.176Z,30.34
2017-06-03T13:13:24.680Z,30.32
2017-06-03T13:14:40.322Z,30.34
2017-06-03T13:15:55.895Z,30.32
2017-06-03T13:16:40.576Z,30.27
2017-06-03T13:17:43.710Z,30.29
2017-06-03T13:18:28.392Z,30.35
2017-06-03T13:19:30.919Z,30.34
2017-06-03T13:20:59.495Z,30.37
2017-06-03T13:22:15.125Z,30.60
2017-06-03T13:23:21.001Z,30.55
2017-06-03T13:24:05.687Z,30.75
2017-06-03T13:25:09.203Z,30.75
2017-06-03T13:26:15.649Z,30.79
2017-06-03T13:27:38.424Z,30.83
2017-06-03T13:28:41.596Z,30.92
2017-06-03T13:29:26.277Z,30.88
2017-06-03T13:30:10.958Z,31.01
2017-06-03T13:31:33.063Z,30.98
2017-06-03T13:32:36.669Z,31.04
2017-06-03T13:33:52.306Z,31.04
2017-06-03T13:35:06.903Z,31.09
2017-06-03T13:36:10.354Z,31.01